createdAt,value
2023-05-21T00:00:39.151Z,0.56
2023-05-21T00:01:39.213Z,0.56
2023-05-21T00:02:39.310Z,0.56
2023-05-21T00:03:39.376Z,0.57
2023-05-21T00:04:39.325Z,0.57
2023-05-21T00:05:39.423Z,0.56
2023-05-21T00:06:39.484Z,0.57
2023-05-21T00:07:39.467Z,0.58
2023-05-21T00:08:39.503Z,0.54
2023-05-21T00:09:39.568Z,0.54
2023-05-21T00:10:39.614Z,0.57
2023-05-21T00:11:39.647Z,0.57
2023-05-21T00:12:39.684Z,0.54
2023-05-21T00:13:39.714Z,0.56
2023-05-21T00:14:39.758Z,0.54
2023-05-21T00:15:39.822Z,0.55
2023-05-21T00:16:39.983Z,0.54
2023-05-21T00:17:40.093Z,0.54
2023-05-21T00:18:39.978Z,0.54
2023-05-21T00:19:40.010Z,0.55
2023-05-21T00:20:40.077Z,0.54
2023-05-21T00:21:40.103Z,0.55
2023-05-21T00:22:40.145Z,0.54
2023-05-21T00:23:40.210Z,0.53
2023-05-21T00:24:40.247Z,0.54
2023-05-21T00:25:40.290Z,0.54
2023-05-21T00:26:40.332Z,0.55
2023-05-21T00:27:40.393Z,0.56
2023-05-21T00:28:40.431Z,0.54
2023-05-21T00:29:41.719Z,0.55
2023-05-21T00:30:40.462Z,0.55
2023-05-21T00:31:40.550Z,0.54
2023-05-21T00:32:40.496Z,0.54
2023-05-21T00:33:40.429Z,0.55
2023-05-21T00:34:40.430Z,0.55
2023-05-21T00:35:40.425Z,0.55
2023-05-21T00:36:40.411Z,0.55
2023-05-21T00:37:40.396Z,0.56
2023-05-21T00:38:40.373Z,0.59
2023-05-21T00:39:40.364Z,0.57
2023-05-21T00:40:40.375Z,0.56
2023-05-21T00:41:40.341Z,0.54
2023-05-21T00:42:40.375Z,0.57
2023-05-21T00:43:40.403Z,0.56
2023-05-21T00:44:40.442Z,0.58
2023-05-21T00:45:40.510Z,0.58
2023-05-21T00:46:40.548Z,0.58
2023-05-21T00:47:40.612Z,0.59
2023-05-21T00:48:40.625Z,0.58
2023-05-21T00:49:40.661Z,0.59
2023-05-21T00:50:40.720Z,0.60
2023-05-21T00:51:40.756Z,0.56
2023-05-21T00:52:40.779Z,0.57
2023-05-21T00:53:40.834Z,0.59
2023-05-21T00:54:40.868Z,0.59
2023-05-21T00:55:40.919Z,0.58
2023-05-21T00:56:40.964Z,0.59
2023-05-21T00:57:41.012Z,0.59
2023-05-21T00:58:41.057Z,0.58
2023-05-21T00:59:41.084Z,0.59
2023-05-21T01:00:41.147Z,0.59
2023-05-21T01:01:41.209Z,0.59
2023-05-21T01:02:41.321Z,0.59
2023-05-21T01:03:41.229Z,0.60
2023-05-21T01:04:41.153Z,0.60
2023-05-21T01:05:41.160Z,0.60
2023-05-21T01:06:41.138Z,0.60
2023-05-21T01:07:41.142Z,0.59
2023-05-21T01:08:41.125Z,0.60
2023-05-21T01:09:41.129Z,0.59
2023-05-21T01:10:41.132Z,0.60
2023-05-21T01:11:41.134Z,0.61
2023-05-21T01:12:41.105Z,0.61
2023-05-21T01:13:41.138Z,0.62
2023-05-21T01:14:41.173Z,0.61
2023-05-21T01:15:41.219Z,0.61
2023-05-21T01:16:41.301Z,0.62
2023-05-21T01:17:41.379Z,0.62
2023-05-21T01:18:41.437Z,0.62
2023-05-21T01:19:41.474Z,0.62
2023-05-21T01:20:41.457Z,0.63
2023-05-21T01:21:41.497Z,0.64
2023-05-21T01:22:41.551Z,0.63
2023-05-21T01:23:41.594Z,0.62
2023-05-21T01:24:41.644Z,0.61
2023-05-21T01:25:41.708Z,0.63
2023-05-21T01:26:41.752Z,0.63
2023-05-21T01:27:41.794Z,0.62
2023-05-21T01:28:41.844Z,0.62
2023-05-21T01:29:41.934Z,0.63
2023-05-21T01:30:41.966Z,0.64
2023-05-21T01:31:42.088Z,0.63
2023-05-21T01:32:42.107Z,0.63
2023-05-21T01:33:42.136Z,0.63
2023-05-21T01:34:42.162Z,0.61
2023-05-21T01:35:42.236Z,0.62
2023-05-21T01:36:42.245Z,0.61
2023-05-21T01:37:42.303Z,0.62
2023-05-21T01:38:42.354Z,0.62
2023-05-21T01:39:42.412Z,0.61
2023-05-21T01:40:42.448Z,0.60
2023-05-21T01:41:42.516Z,0.60
2023-05-21T01:42:42.562Z,0.61
2023-05-21T01:43:42.618Z,0.61
2023-05-21T01:44:42.610Z,0.61
2023-05-21T01:45:42.640Z,0.60
2023-05-21T01:46:42.649Z,0.61
2023-05-21T01:47:42.609Z,0.60
2023-05-21T01:48:42.601Z,0.62
2023-05-21T01:49:42.595Z,0.61
2023-05-21T01:50:42.619Z,0.61
2023-05-21T01:51:42.598Z,0.61
2023-05-21T01:52:42.602Z,0.60
2023-05-21T01:53:42.609Z,0.61
2023-05-21T01:54:42.596Z,0.61
2023-05-21T01:55:42.617Z,0.61
2023-05-21T01:56:42.673Z,0.60
2023-05-21T01:57:42.699Z,0.60
2023-05-21T01:58:42.750Z,0.62
2023-05-21T01:59:42.785Z,0.61
2023-05-21T02:00:42.840Z,0.62
2023-05-21T02:01:42.899Z,0.62
2023-05-21T02:02:42.984Z,0.59
2023-05-21T02:03:43.023Z,0.62
2023-05-21T02:04:43.018Z,0.61
2023-05-21T02:05:43.067Z,0.61
2023-05-21T02:06:43.111Z,0.61
2023-05-21T02:07:43.162Z,0.61
2023-05-21T02:08:43.206Z,0.61
2023-05-21T02:09:43.247Z,0.58
2023-05-21T02:10:43.303Z,0.61
2023-05-21T02:11:43.350Z,0.61
2023-05-21T02:12:43.421Z,0.62
2023-05-21T02:13:43.444Z,0.61
2023-05-21T02:14:43.492Z,0.62
2023-05-21T02:15:43.560Z,0.61
2023-05-21T02:16:43.693Z,0.61
2023-05-21T02:17:43.649Z,0.60
2023-05-21T02:18:43.754Z,0.60
2023-05-21T02:19:43.731Z,0.62
2023-05-21T02:20:43.781Z,0.61
2023-05-21T02:21:43.836Z,0.62
2023-05-21T02:22:43.890Z,0.62
2023-05-21T02:23:43.930Z,0.62
2023-05-21T02:24:43.979Z,0.61
2023-05-21T02:25:44.054Z,0.62
2023-05-21T02:26:44.088Z,0.62
2023-05-21T02:27:44.112Z,0.63
2023-05-21T02:28:44.156Z,0.62
2023-05-21T02:29:44.209Z,0.60
2023-05-21T02:30:44.284Z,0.61
2023-05-21T02:31:44.328Z,0.60
2023-05-21T02:32:44.425Z,0.59
2023-05-21T02:33:44.498Z,0.61
2023-05-21T02:34:44.479Z,0.59
2023-05-21T02:35:44.525Z,0.60
2023-05-21T02:36:44.564Z,0.58
2023-05-21T02:37:44.677Z,0.58
2023-05-21T02:38:44.695Z,0.60
2023-05-21T02:39:44.733Z,0.59
2023-05-21T02:40:44.784Z,0.60
2023-05-21T02:41:44.835Z,0.60
2023-05-21T02:42:44.895Z,0.59
2023-05-21T02:43:44.953Z,0.57
2023-05-21T02:44:45.007Z,0.60
2023-05-21T02:45:45.085Z,0.59
2023-05-21T02:46:45.108Z,0.59
2023-05-21T02:47:45.184Z,0.59
2023-05-21T02:48:45.201Z,0.58
2023-05-21T02:49:45.273Z,0.57
2023-05-21T02:50:45.310Z,0.59
2023-05-21T02:51:45.357Z,0.56
2023-05-21T02:52:45.417Z,0.57
2023-05-21T02:53:45.465Z,0.59
2023-05-21T02:54:45.529Z,0.58
2023-05-21T02:55:45.575Z,0.57
2023-05-21T02:56:45.584Z,0.57
2023-05-21T02:57:45.593Z,0.57
2023-05-21T02:58:45.585Z,0.57
2023-05-21T02:59:45.600Z,0.57
2023-05-21T03:00:45.600Z,0.60
2023-05-21T03:01:45.625Z,0.60
2023-05-21T03:02:45.628Z,0.60
2023-05-21T03:03:45.629Z,0.58
2023-05-21T03:04:45.584Z,0.59
2023-05-21T03:05:45.598Z,0.59
2023-05-21T03:06:45.587Z,0.57
2023-05-21T03:07:45.585Z,0.60
2023-05-21T03:08:45.621Z,0.59
2023-05-21T03:09:45.665Z,0.57
2023-05-21T03:10:45.729Z,0.58
2023-05-21T03:11:45.782Z,0.58
2023-05-21T03:12:45.834Z,0.59
2023-05-21T03:13:45.953Z,0.59
2023-05-21T03:14:45.934Z,0.59
2023-05-21T03:15:45.986Z,0.59
2023-05-21T03:16:46.177Z,0.57
2023-05-21T03:17:46.139Z,0.58
2023-05-21T03:18:46.179Z,0.59
2023-05-21T03:19:46.197Z,0.58
2023-05-21T03:20:46.261Z,0.58
2023-05-21T03:21:46.304Z,0.59
2023-05-21T03:22:46.373Z,0.59
2023-05-21T03:23:46.409Z,0.58
2023-05-21T03:24:46.486Z,0.57
2023-05-21T03:25:46.519Z,0.58
2023-05-21T03:26:46.573Z,0.58
2023-05-21T03:27:46.625Z,0.59
2023-05-21T03:28:46.686Z,0.59
2023-05-21T03:29:46.737Z,0.59
2023-05-21T03:30:46.791Z,0.58
2023-05-21T03:31:46.872Z,0.58
2023-05-21T03:32:46.909Z,0.59
2023-05-21T03:33:46.959Z,0.59
2023-05-21T03:34:47.052Z,0.60
2023-05-21T03:35:47.015Z,0.60
2023-05-21T03:36:47.017Z,0.60
2023-05-21T03:37:47.010Z,0.60
2023-05-21T03:38:47.000Z,0.58
2023-05-21T03:39:47.015Z,0.59
2023-05-21T03:40:47.014Z,0.59
2023-05-21T03:41:46.993Z,0.60
2023-05-21T03:42:47.011Z,0.61
2023-05-21T03:43:46.993Z,0.59
2023-05-21T03:44:47.039Z,0.60
2023-05-21T03:45:47.063Z,0.59
2023-05-21T03:46:47.070Z,0.61
2023-05-21T03:47:47.140Z,0.59
2023-05-21T03:48:47.173Z,0.60
2023-05-21T03:49:47.230Z,0.60
2023-05-21T03:50:47.301Z,0.59
2023-05-21T03:51:47.338Z,0.60
2023-05-21T03:52:47.400Z,0.60
2023-05-21T03:53:47.480Z,0.60
2023-05-21T03:54:47.515Z,0.60
2023-05-21T03:55:47.573Z,0.60
2023-05-21T03:56:47.617Z,0.61
2023-05-21T03:57:47.682Z,0.59
2023-05-21T03:58:47.734Z,0.60
2023-05-21T03:59:47.809Z,0.61
2023-05-21T04:00:47.869Z,0.59
2023-05-21T04:01:47.928Z,0.60
2023-05-21T04:02:48.124Z,0.60
2023-05-21T04:03:48.164Z,0.59
2023-05-21T04:04:48.269Z,0.61
2023-05-21T04:05:48.143Z,0.60
2023-05-21T04:06:48.211Z,0.59
2023-05-21T04:07:48.256Z,0.60
2023-05-21T04:08:48.297Z,0.60
2023-05-21T04:09:48.358Z,0.60
2023-05-21T04:10:48.424Z,0.60
2023-05-21T04:11:48.459Z,0.61
2023-05-21T04:12:48.533Z,0.60
2023-05-21T04:13:48.591Z,0.60
2023-05-21T04:14:48.647Z,0.60
2023-05-21T04:15:48.729Z,0.60
2023-05-21T04:16:48.745Z,0.59
2023-05-21T04:17:48.807Z,0.60
2023-05-21T04:18:48.893Z,0.61
2023-05-21T04:19:48.937Z,0.60
2023-05-21T04:20:48.958Z,0.61
2023-05-21T04:21:48.994Z,0.59
2023-05-21T04:22:49.054Z,0.59
2023-05-21T04:23:49.133Z,0.59
2023-05-21T04:24:49.243Z,0.60
2023-05-21T04:25:49.270Z,0.60
2023-05-21T04:26:49.289Z,0.60
2023-05-21T04:27:49.305Z,0.60
2023-05-21T04:28:49.366Z,0.61
2023-05-21T04:29:50.780Z,0.59
2023-05-21T04:30:49.487Z,0.59
2023-05-21T04:31:49.599Z,0.60
2023-05-21T04:32:49.621Z,0.60
2023-05-21T04:33:49.625Z,0.62
2023-05-21T04:34:49.695Z,0.61
2023-05-21T04:35:49.748Z,0.59
2023-05-21T04:36:49.781Z,0.60
2023-05-21T04:37:49.771Z,0.60
2023-05-21T04:38:49.780Z,0.60
2023-05-21T04:39:49.783Z,0.60
2023-05-21T04:40:49.803Z,0.61
2023-05-21T04:41:49.790Z,0.59
2023-05-21T04:42:49.802Z,0.60
2023-05-21T04:43:49.823Z,0.60
2023-05-21T04:44:49.797Z,0.59
2023-05-21T04:45:49.832Z,0.61
2023-05-21T04:46:49.819Z,0.61
2023-05-21T04:47:49.885Z,0.61
2023-05-21T04:48:49.806Z,0.60
2023-05-21T04:49:49.803Z,0.60
2023-05-21T04:50:49.808Z,0.60
2023-05-21T04:51:49.799Z,0.58
2023-05-21T04:52:49.805Z,0.59
2023-05-21T04:53:49.804Z,0.58
2023-05-21T04:54:49.801Z,0.57
2023-05-21T04:55:49.797Z,0.58
2023-05-21T04:56:49.785Z,0.59
2023-05-21T04:57:49.809Z,0.58
2023-05-21T04:58:50.029Z,0.59
2023-05-21T04:59:49.975Z,0.59
2023-05-21T05:00:49.986Z,0.57
2023-05-21T05:01:50.020Z,0.56
2023-05-21T05:02:50.130Z,0.57
2023-05-21T05:03:50.139Z,0.57
2023-05-21T05:04:50.171Z,0.57
2023-05-21T05:05:50.234Z,0.56
2023-05-21T05:06:50.273Z,0.57
2023-05-21T05:07:50.333Z,0.57
2023-05-21T05:08:50.372Z,0.57
2023-05-21T05:09:50.407Z,0.57
2023-05-21T05:10:50.470Z,0.56
2023-05-21T05:11:50.507Z,0.57
2023-05-21T05:12:50.553Z,0.55
2023-05-21T05:13:50.597Z,0.55
2023-05-21T05:14:50.651Z,0.54
2023-05-21T05:15:52.574Z,0.55
2023-05-21T05:16:50.878Z,0.52
2023-05-21T05:17:50.745Z,0.52
2023-05-21T05:18:50.715Z,0.52
2023-05-21T05:19:50.689Z,0.51
2023-05-21T05:20:50.709Z,0.52
2023-05-21T05:21:50.695Z,0.51
2023-05-21T05:22:50.690Z,0.50
2023-05-21T05:23:50.677Z,0.51
2023-05-21T05:24:50.696Z,0.50
2023-05-21T05:25:50.686Z,0.50
2023-05-21T05:26:50.811Z,0.50
2023-05-21T05:27:50.707Z,0.51
2023-05-21T05:28:50.681Z,0.51
2023-05-21T05:29:50.703Z,0.51
2023-05-21T05:30:50.723Z,0.51
2023-05-21T05:31:50.685Z,0.51
2023-05-21T05:32:50.739Z,0.51
2023-05-21T05:33:50.693Z,0.50
2023-05-21T05:34:50.694Z,0.50
2023-05-21T05:35:50.722Z,0.51
2023-05-21T05:36:50.678Z,0.51
2023-05-21T05:37:50.748Z,0.51
2023-05-21T05:38:50.670Z,0.51
2023-05-21T05:39:50.696Z,0.50
2023-05-21T05:40:50.700Z,0.51
2023-05-21T05:41:50.679Z,0.51
2023-05-21T05:42:50.692Z,0.50
2023-05-21T05:43:50.686Z,0.51
2023-05-21T05:44:50.694Z,0.51
2023-05-21T05:45:50.746Z,0.50
2023-05-21T05:46:50.709Z,0.50
2023-05-21T05:47:50.777Z,0.51
2023-05-21T05:48:50.800Z,0.51
2023-05-21T05:49:50.854Z,0.51
2023-05-21T05:50:50.929Z,0.51
2023-05-21T05:51:50.960Z,0.51
2023-05-21T05:52:50.999Z,0.51
2023-05-21T05:53:51.053Z,0.50
2023-05-21T05:54:51.114Z,0.52
2023-05-21T05:55:51.161Z,0.50
2023-05-21T05:56:51.211Z,0.51
2023-05-21T05:57:51.256Z,0.52
2023-05-21T05:58:51.309Z,0.52
2023-05-21T05:59:51.370Z,0.52
2023-05-21T06:00:51.419Z,0.50
2023-05-21T06:01:51.456Z,0.50
2023-05-21T06:02:51.545Z,0.51
2023-05-21T06:03:51.645Z,0.50
2023-05-21T06:04:51.594Z,0.51
2023-05-21T06:05:51.645Z,0.50
2023-05-21T06:06:51.649Z,0.50
2023-05-21T06:07:51.692Z,0.53
2023-05-21T06:08:51.736Z,0.52
2023-05-21T06:09:51.802Z,0.51
2023-05-21T06:10:51.839Z,0.51
2023-05-21T06:11:51.884Z,0.51
2023-05-21T06:12:51.901Z,0.51
2023-05-21T06:13:51.933Z,0.50
2023-05-21T06:14:51.968Z,0.50
2023-05-21T06:15:52.043Z,0.50
2023-05-21T06:16:52.026Z,0.50
2023-05-21T06:17:52.126Z,0.52
2023-05-21T06:18:52.113Z,0.51
2023-05-21T06:19:52.123Z,0.52
2023-05-21T06:20:52.156Z,0.50
2023-05-21T06:21:52.158Z,0.54
2023-05-21T06:22:52.198Z,0.56
2023-05-21T06:23:52.258Z,0.54
2023-05-21T06:24:52.260Z,0.57
2023-05-21T06:25:52.298Z,0.60
2023-05-21T06:26:52.339Z,0.64
2023-05-21T06:27:52.340Z,0.65
2023-05-21T06:28:52.373Z,0.67
2023-05-21T06:29:52.385Z,0.67
2023-05-21T06:30:52.422Z,0.69
2023-05-21T06:31:52.417Z,0.68
2023-05-21T06:32:52.541Z,0.68
2023-05-21T06:33:52.584Z,0.69
2023-05-21T06:34:52.483Z,0.73
2023-05-21T06:35:52.521Z,0.74
2023-05-21T06:36:52.557Z,0.74
2023-05-21T06:37:52.557Z,0.76
2023-05-21T06:38:52.595Z,0.77
2023-05-21T06:39:52.592Z,0.78
2023-05-21T06:40:52.635Z,0.77
2023-05-21T06:41:52.636Z,0.77
2023-05-21T06:42:52.673Z,0.78
2023-05-21T06:43:52.671Z,0.79
2023-05-21T06:44:52.706Z,0.79
2023-05-21T06:45:52.759Z,0.79
2023-05-21T06:46:52.827Z,0.79
2023-05-21T06:47:52.845Z,0.80
2023-05-21T06:48:52.783Z,0.80
2023-05-21T06:49:52.785Z,0.81
2023-05-21T06:50:52.827Z,0.83
2023-05-21T06:51:52.825Z,0.81
2023-05-21T06:52:52.826Z,0.81
2023-05-21T06:53:52.862Z,0.82
2023-05-21T06:54:52.856Z,0.83
2023-05-21T06:55:52.872Z,0.81
2023-05-21T06:56:52.892Z,0.82
2023-05-21T06:57:52.896Z,0.82
2023-05-21T06:58:52.894Z,0.82
2023-05-21T06:59:52.874Z,0.82
2023-05-21T07:00:52.912Z,0.83
2023-05-21T07:01:52.887Z,0.84
2023-05-21T07:02:52.936Z,0.84
2023-05-21T07:03:52.874Z,0.83
2023-05-21T07:04:52.844Z,0.84
2023-05-21T07:05:52.846Z,0.83
2023-05-21T07:06:52.852Z,0.82
2023-05-21T07:07:52.834Z,0.82
2023-05-21T07:08:52.863Z,0.81
2023-05-21T07:09:52.821Z,0.80
2023-05-21T07:10:52.829Z,0.80
2023-05-21T07:11:52.814Z,0.80
2023-05-21T07:12:52.815Z,0.79
2023-05-21T07:13:52.833Z,0.76
2023-05-21T07:14:52.808Z,0.78
2023-05-21T07:15:52.817Z,0.77
2023-05-21T07:16:52.876Z,0.75
2023-05-21T07:17:52.912Z,0.79
2023-05-21T07:18:52.829Z,0.79
2023-05-21T07:19:52.807Z,0.79
2023-05-21T07:20:52.910Z,0.77
2023-05-21T07:21:52.801Z,0.77
2023-05-21T07:22:52.792Z,0.78
2023-05-21T07:23:52.801Z,0.75
2023-05-21T07:24:52.772Z,0.78
2023-05-21T07:25:52.783Z,0.77
2023-05-21T07:26:52.770Z,0.76
2023-05-21T07:27:52.766Z,0.76
2023-05-21T07:28:52.761Z,0.75
2023-05-21T07:29:52.756Z,0.77
2023-05-21T07:30:52.761Z,0.75
2023-05-21T07:31:52.734Z,0.74
2023-05-21T07:32:52.777Z,0.75
2023-05-21T07:33:52.741Z,0.74
2023-05-21T07:34:54.346Z,0.76
2023-05-21T07:35:52.749Z,0.76
2023-05-21T07:36:52.755Z,0.76
2023-05-21T07:37:52.816Z,0.76
2023-05-21T07:38:52.757Z,0.76
2023-05-21T07:39:52.773Z,0.76
2023-05-21T07:40:52.768Z,0.77
2023-05-21T07:41:52.764Z,0.78
2023-05-21T07:42:52.761Z,0.77
2023-05-21T07:43:52.757Z,0.79
2023-05-21T07:44:52.737Z,0.78
2023-05-21T07:45:52.798Z,0.79
2023-05-21T07:46:52.739Z,0.79
2023-05-21T07:47:52.840Z,0.79
2023-05-21T07:48:52.733Z,0.82
2023-05-21T07:49:52.740Z,0.81
2023-05-21T07:50:52.727Z,0.80
2023-05-21T07:51:52.718Z,0.80
2023-05-21T07:52:52.762Z,0.81
2023-05-21T07:53:54.509Z,0.84
2023-05-21T07:54:52.751Z,0.86
2023-05-21T07:55:52.753Z,0.85
2023-05-21T07:56:52.751Z,0.84
2023-05-21T07:57:52.731Z,0.84
2023-05-21T07:58:52.728Z,0.84
2023-05-21T07:59:52.760Z,0.86
2023-05-21T08:00:52.736Z,0.84
2023-05-21T08:01:52.757Z,0.87
2023-05-21T08:02:52.850Z,0.87
2023-05-21T08:03:52.851Z,0.87
2023-05-21T08:04:52.762Z,0.90
2023-05-21T08:05:52.676Z,0.90
2023-05-21T08:06:52.672Z,0.90
2023-05-21T08:07:52.676Z,0.90
2023-05-21T08:08:52.670Z,0.90
2023-05-21T08:09:52.644Z,0.88
2023-05-21T08:10:52.650Z,0.88
2023-05-21T08:11:52.639Z,0.89
2023-05-21T08:12:52.628Z,0.89
2023-05-21T08:13:52.629Z,0.88
2023-05-21T08:14:52.616Z,0.88
2023-05-21T08:15:53.273Z,0.88
2023-05-21T08:16:52.703Z,0.90
2023-05-21T08:17:52.615Z,0.87
2023-05-21T08:18:52.675Z,0.88
2023-05-21T08:19:52.557Z,0.87
2023-05-21T08:20:52.561Z,0.87
2023-05-21T08:21:53.226Z,0.84
2023-05-21T08:22:52.553Z,0.87
2023-05-21T08:23:52.557Z,0.88
2023-05-21T08:24:52.536Z,0.88
2023-05-21T08:25:52.532Z,0.88
2023-05-21T08:26:52.527Z,0.89
2023-05-21T08:27:52.624Z,0.92
2023-05-21T08:28:52.501Z,0.93
2023-05-21T08:29:52.532Z,0.93
2023-05-21T08:30:52.499Z,0.93
2023-05-21T08:31:52.567Z,0.94
2023-05-21T08:32:52.558Z,0.94
2023-05-21T08:33:52.477Z,0.93
2023-05-21T08:34:52.467Z,0.91
2023-05-21T08:35:52.475Z,0.91
2023-05-21T08:36:52.441Z,0.91
2023-05-21T08:37:52.443Z,0.91
2023-05-21T08:38:52.422Z,0.90
2023-05-21T08:39:52.426Z,0.91
2023-05-21T08:40:52.418Z,0.86
2023-05-21T08:41:52.433Z,0.87
2023-05-21T08:42:52.434Z,0.85
2023-05-21T08:43:54.254Z,0.80
2023-05-21T08:44:52.488Z,0.77
2023-05-21T08:45:52.563Z,0.75
2023-05-21T08:46:52.556Z,0.79
2023-05-21T08:47:52.721Z,0.79
2023-05-21T08:48:52.574Z,0.79
2023-05-21T08:49:52.561Z,0.79
2023-05-21T08:50:52.559Z,0.78
2023-05-21T08:51:52.555Z,0.74
2023-05-21T08:52:52.536Z,0.72
2023-05-21T08:53:52.514Z,0.74
2023-05-21T08:54:52.518Z,0.70
2023-05-21T08:55:52.504Z,0.71
2023-05-21T08:56:52.486Z,0.70
2023-05-21T08:57:52.468Z,0.69
2023-05-21T08:58:52.471Z,0.68
2023-05-21T08:59:52.442Z,0.68
2023-05-21T09:00:52.504Z,0.65
2023-05-21T09:01:52.700Z,0.62
2023-05-21T09:02:52.549Z,0.62
2023-05-21T09:03:52.625Z,0.62
2023-05-21T09:04:52.579Z,0.59
2023-05-21T09:05:52.660Z,0.60
2023-05-21T09:06:52.666Z,0.58
2023-05-21T09:07:52.911Z,0.56
2023-05-21T09:08:52.835Z,0.58
2023-05-21T09:09:52.827Z,0.56
2023-05-21T09:10:52.908Z,0.56
2023-05-21T09:11:52.917Z,0.56
2023-05-21T09:12:52.938Z,0.56
2023-05-21T09:13:52.991Z,0.56
2023-05-21T09:14:53.038Z,0.56
2023-05-21T09:15:53.077Z,0.57
2023-05-21T09:16:53.152Z,0.56
2023-05-21T09:17:53.318Z,0.57
2023-05-21T09:18:53.226Z,0.57
2023-05-21T09:19:53.254Z,0.59
2023-05-21T09:20:53.294Z,0.57
2023-05-21T09:21:53.339Z,0.55
2023-05-21T09:22:53.328Z,0.56
2023-05-21T09:23:53.386Z,0.57
2023-05-21T09:24:53.396Z,0.57
2023-05-21T09:25:53.466Z,0.57
2023-05-21T09:26:53.503Z,0.59
2023-05-21T09:27:53.544Z,0.60
2023-05-21T09:28:53.602Z,0.58
2023-05-21T09:29:53.655Z,0.58
2023-05-21T09:30:53.716Z,0.61
2023-05-21T09:31:53.824Z,0.61
2023-05-21T09:32:53.887Z,0.61
2023-05-21T09:33:53.858Z,0.62
2023-05-21T09:34:53.907Z,0.63
2023-05-21T09:35:53.996Z,0.63
2023-05-21T09:36:54.022Z,0.63
2023-05-21T09:37:54.100Z,0.63
2023-05-21T09:38:54.164Z,0.62
2023-05-21T09:39:54.237Z,0.63
2023-05-21T09:40:54.290Z,0.62
2023-05-21T09:41:54.351Z,0.64
2023-05-21T09:42:54.428Z,0.64
2023-05-21T09:43:54.485Z,0.64
2023-05-21T09:44:54.530Z,0.64
2023-05-21T09:45:54.636Z,0.63
2023-05-21T09:46:54.714Z,0.63
2023-05-21T09:47:54.720Z,0.63
2023-05-21T09:48:54.731Z,0.64
2023-05-21T09:49:54.802Z,0.65
2023-05-21T09:50:54.857Z,0.66
2023-05-21T09:51:54.942Z,0.65
2023-05-21T09:52:54.977Z,0.66
2023-05-21T09:53:55.089Z,0.66
2023-05-21T09:54:55.097Z,0.65
2023-05-21T09:55:55.101Z,0.65
2023-05-21T09:56:55.096Z,0.65
2023-05-21T09:57:55.092Z,0.66
2023-05-21T09:58:55.052Z,0.66
2023-05-21T09:59:55.043Z,0.68
2023-05-21T10:00:55.033Z,0.68
2023-05-21T10:01:55.083Z,0.66
2023-05-21T10:02:55.184Z,0.66
2023-05-21T10:03:55.082Z,0.63
2023-05-21T10:04:55.040Z,0.51
2023-05-21T10:05:55.003Z,0.44
2023-05-21T10:06:54.999Z,0.44
2023-05-21T10:07:54.968Z,0.47
2023-05-21T10:08:54.972Z,0.49
2023-05-21T10:09:54.959Z,0.51
2023-05-21T10:10:54.948Z,0.51
2023-05-21T10:11:54.953Z,0.51
2023-05-21T10:12:55.015Z,0.51
2023-05-21T10:13:55.048Z,0.50
2023-05-21T10:14:55.100Z,0.50
2023-05-21T10:15:55.227Z,0.50
2023-05-21T10:16:55.194Z,0.51
2023-05-21T10:17:55.346Z,0.50
2023-05-21T10:18:55.339Z,0.50
2023-05-21T10:19:55.374Z,0.51
2023-05-21T10:20:55.501Z,0.50
2023-05-21T10:21:55.465Z,0.51
2023-05-21T10:22:55.537Z,0.54
2023-05-21T10:23:55.616Z,0.49
2023-05-21T10:24:55.712Z,0.50
2023-05-21T10:25:56.054Z,0.51
2023-05-21T10:26:55.761Z,0.53
2023-05-21T10:27:55.775Z,0.50
2023-05-21T10:28:55.858Z,0.51
2023-05-21T10:29:55.894Z,0.53
2023-05-21T10:30:55.946Z,0.55
2023-05-21T10:31:56.047Z,0.57
2023-05-21T10:32:56.165Z,0.58
2023-05-21T10:33:56.118Z,0.51
2023-05-21T10:34:56.166Z,0.51
2023-05-21T10:35:56.209Z,0.53
2023-05-21T10:36:56.293Z,0.56
2023-05-21T10:37:56.307Z,0.50
2023-05-21T10:38:56.353Z,0.50
2023-05-21T10:39:56.421Z,0.52
2023-05-21T10:40:56.454Z,0.56
2023-05-21T10:41:59.056Z,0.55
2023-05-21T10:42:56.485Z,0.54
2023-05-21T10:43:56.483Z,0.51
2023-05-21T10:44:56.472Z,0.50
2023-05-21T10:45:56.474Z,0.52
2023-05-21T10:46:56.451Z,0.50
2023-05-21T10:47:56.471Z,0.50
2023-05-21T10:48:56.429Z,0.52
2023-05-21T10:49:56.422Z,0.58
2023-05-21T10:50:56.416Z,0.59
2023-05-21T10:51:56.407Z,0.61
2023-05-21T10:52:56.408Z,0.56
2023-05-21T10:53:56.401Z,0.59
2023-05-21T10:54:56.386Z,0.52
2023-05-21T10:55:56.375Z,0.51
2023-05-21T10:56:56.372Z,0.52
2023-05-21T10:57:56.372Z,0.59
2023-05-21T10:58:56.351Z,0.58
2023-05-21T10:59:56.346Z,0.61
2023-05-21T11:00:56.376Z,0.61
2023-05-21T11:01:56.326Z,0.59
2023-05-21T11:02:56.390Z,0.54
2023-05-21T11:03:56.377Z,0.51
2023-05-21T11:04:56.328Z,0.54
2023-05-21T11:05:56.325Z,0.56
2023-05-21T11:06:56.364Z,0.59
2023-05-21T11:07:56.341Z,0.64
2023-05-21T11:08:56.264Z,0.66
2023-05-21T11:09:56.276Z,0.70
2023-05-21T11:10:56.259Z,0.72
2023-05-21T11:11:56.268Z,0.71
2023-05-21T11:12:56.244Z,0.71
2023-05-21T11:13:56.239Z,0.71
2023-05-21T11:14:56.250Z,0.71
2023-05-21T11:15:56.236Z,0.70
2023-05-21T11:16:56.233Z,0.70
2023-05-21T11:17:56.228Z,0.72
2023-05-21T11:18:56.229Z,0.70
2023-05-21T11:19:56.265Z,0.68
2023-05-21T11:20:56.192Z,0.66
2023-05-21T11:21:56.183Z,0.66
2023-05-21T11:22:56.181Z,0.64
2023-05-21T11:23:56.228Z,0.64
2023-05-21T11:24:56.288Z,0.64
2023-05-21T11:25:56.350Z,0.65
2023-05-21T11:26:56.424Z,0.63
2023-05-21T11:27:56.471Z,0.65
2023-05-21T11:28:56.531Z,0.61
2023-05-21T11:29:56.601Z,0.62
2023-05-21T11:30:56.683Z,0.62
2023-05-21T11:31:56.715Z,0.62
2023-05-21T11:32:56.782Z,0.63
2023-05-21T11:33:56.735Z,0.63
2023-05-21T11:34:56.719Z,0.63
2023-05-21T11:35:56.721Z,0.63
2023-05-21T11:36:56.708Z,0.62
2023-05-21T11:37:56.689Z,0.60
2023-05-21T11:38:56.690Z,0.59
2023-05-21T11:39:56.676Z,0.59
2023-05-21T11:40:56.743Z,0.60
2023-05-21T11:41:56.792Z,0.59
2023-05-21T11:42:56.818Z,0.60
2023-05-21T11:43:56.862Z,0.58
2023-05-21T11:44:56.921Z,0.59
2023-05-21T11:45:57.023Z,0.58
2023-05-21T11:46:57.090Z,0.58
2023-05-21T11:47:57.139Z,0.58
2023-05-21T11:48:57.155Z,0.56
2023-05-21T11:49:57.194Z,0.55
2023-05-21T11:50:57.257Z,0.54
2023-05-21T11:51:57.312Z,0.54
2023-05-21T11:52:57.370Z,0.54
2023-05-21T11:53:57.456Z,0.54
2023-05-21T11:54:57.519Z,0.53
2023-05-21T11:55:57.901Z,0.53
2023-05-21T11:56:57.526Z,0.53
2023-05-21T11:57:57.585Z,0.54
2023-05-21T11:58:57.606Z,0.54
2023-05-21T11:59:57.647Z,0.54
2023-05-21T12:00:57.671Z,0.53
2023-05-21T12:01:57.651Z,0.54
2023-05-21T12:02:57.812Z,0.53
2023-05-21T12:03:57.719Z,0.54
2023-05-21T12:04:57.676Z,0.53
2023-05-21T12:05:57.808Z,0.53
2023-05-21T12:06:57.755Z,0.52
2023-05-21T12:07:57.727Z,0.52
2023-05-21T12:08:57.715Z,0.53
2023-05-21T12:09:57.695Z,0.53
2023-05-21T12:10:57.683Z,0.55
2023-05-21T12:11:57.661Z,0.52
2023-05-21T12:12:57.884Z,0.53
2023-05-21T12:13:57.708Z,0.53
2023-05-21T12:14:57.621Z,0.51
2023-05-21T12:15:57.624Z,0.51
2023-05-21T12:16:57.739Z,0.51
2023-05-21T12:17:57.701Z,0.51
2023-05-21T12:18:57.681Z,0.50
2023-05-21T12:19:57.703Z,0.51
2023-05-21T12:20:57.753Z,0.51
2023-05-21T12:21:57.786Z,0.51
2023-05-21T12:22:57.852Z,0.52
2023-05-21T12:23:57.874Z,0.52
2023-05-21T12:24:57.918Z,0.51
2023-05-21T12:25:57.948Z,0.52
2023-05-21T12:26:57.983Z,0.53
2023-05-21T12:27:58.298Z,0.55
2023-05-21T12:28:58.084Z,0.55
2023-05-21T12:29:58.099Z,0.52
2023-05-21T12:30:58.179Z,0.53
2023-05-21T12:31:58.186Z,0.54
2023-05-21T12:32:58.221Z,0.54
2023-05-21T12:33:58.248Z,0.53
2023-05-21T12:34:58.269Z,0.53
2023-05-21T12:35:58.330Z,0.52
2023-05-21T12:36:58.318Z,0.51
2023-05-21T12:37:58.310Z,0.51
2023-05-21T12:38:58.311Z,0.51
2023-05-21T12:39:58.306Z,0.51
2023-05-21T12:40:58.280Z,0.49
2023-05-21T12:41:58.254Z,0.49
2023-05-21T12:42:58.238Z,0.51
2023-05-21T12:43:58.215Z,0.51
2023-05-21T12:44:58.214Z,0.51
2023-05-21T12:45:58.287Z,0.49
2023-05-21T12:46:58.197Z,0.50
2023-05-21T12:47:58.241Z,0.49
2023-05-21T12:48:58.205Z,0.52
2023-05-21T12:49:58.168Z,0.54
2023-05-21T12:50:58.169Z,0.54
2023-05-21T12:51:58.138Z,0.54
2023-05-21T12:52:58.141Z,0.54
2023-05-21T12:53:58.131Z,0.54
2023-05-21T12:54:58.103Z,0.55
2023-05-21T12:55:58.145Z,0.55
2023-05-21T12:56:58.139Z,0.56
2023-05-21T12:57:58.168Z,0.55
2023-05-21T12:58:58.204Z,0.53
2023-05-21T12:59:58.216Z,0.54
2023-05-21T13:00:58.268Z,0.55
2023-05-21T13:01:58.321Z,0.55
2023-05-21T13:02:58.373Z,0.54
2023-05-21T13:03:58.322Z,0.53
2023-05-21T13:04:58.305Z,0.51
2023-05-21T13:05:58.289Z,0.50
2023-05-21T13:06:58.281Z,0.50
2023-05-21T13:07:58.265Z,0.50
2023-05-21T13:08:58.257Z,0.51
2023-05-21T13:09:58.228Z,0.50
2023-05-21T13:10:58.257Z,0.50
2023-05-21T13:11:58.204Z,0.51
2023-05-21T13:12:58.209Z,0.52
2023-05-21T13:13:58.199Z,0.51
2023-05-21T13:14:58.177Z,0.52
2023-05-21T13:15:58.215Z,0.51
2023-05-21T13:16:58.214Z,0.50
2023-05-21T13:17:58.293Z,0.51
2023-05-21T13:18:58.286Z,0.51